createdAt,value
2022-09-23T00:01:14.269Z,9.70
2022-09-23T00:03:42.853Z,9.80
2022-09-23T00:06:12.846Z,9.70
2022-09-23T00:08:40.390Z,9.70
2022-09-23T00:11:11.363Z,9.70
2022-09-23T00:13:39.621Z,9.80
2022-09-23T00:16:09.918Z,9.80
2022-09-23T00:18:36.869Z,9.80
2022-09-23T00:21:09.997Z,9.80
2022-09-23T00:23:37.912Z,9.80
2022-09-23T00:26:06.219Z,9.70
2022-09-23T00:28:33.855Z,9.60
2022-09-23T00:31:09.782Z,9.60
2022-09-23T00:33:36.851Z,9.60
2022-09-23T00:36:11.071Z,9.60
2022-09-23T00:38:38.844Z,9.60
2022-09-23T00:41:06.381Z,9.60
2022-09-23T00:43:59.707Z,9.60
2022-09-23T00:46:39.927Z,9.60
2022-09-23T00:49:13.723Z,9.60
2022-09-23T00:51:45.288Z,9.70
2022-09-23T00:54:12.179Z,9.70
2022-09-23T00:56:39.654Z,9.60
2022-09-23T00:59:09.665Z,9.50
2022-09-23T01:01:38.467Z,9.60
2022-09-23T01:04:06.843Z,9.50
2022-09-23T01:06:33.671Z,9.60
2022-09-23T01:09:00.503Z,9.60
2022-09-23T01:11:48.436Z,9.60
2022-09-23T01:14:24.442Z,9.40
2022-09-23T01:16:54.540Z,9.30
2022-09-23T01:19:33.167Z,9.30
2022-09-23T01:22:08.460Z,9.20
2022-09-23T01:24:46.226Z,9.00
2022-09-23T01:27:27.047Z,9.10
2022-09-23T01:30:12.799Z,9.00
2022-09-23T01:33:04.777Z,9.10
2022-09-23T01:35:47.726Z,9.00
2022-09-23T01:38:29.107Z,9.20
2022-09-23T01:40:55.847Z,9.00
2022-09-23T01:43:33.804Z,8.80
2022-09-23T01:46:03.439Z,8.70
2022-09-23T01:48:39.278Z,8.60
2022-09-23T01:51:12.366Z,8.50
2022-09-23T01:53:59.861Z,8.40
2022-09-23T01:56:35.666Z,8.30
2022-09-23T01:59:30.311Z,8.40
2022-09-23T02:02:03.803Z,8.40
2022-09-23T02:04:40.229Z,8.40
2022-09-23T02:07:15.043Z,8.30
2022-09-23T02:09:50.404Z,8.40
2022-09-23T02:12:21.293Z,8.30
2022-09-23T02:14:57.349Z,8.40
2022-09-23T02:17:41.004Z,8.50
2022-09-23T02:20:08.516Z,8.40
2022-09-23T02:22:51.483Z,8.30
2022-09-23T02:25:20.636Z,8.30
2022-09-23T02:27:56.396Z,8.20
2022-09-23T02:30:29.762Z,8.10
2022-09-23T02:33:20.609Z,8.20
2022-09-23T02:36:01.236Z,8.00
2022-09-23T02:38:52.274Z,8.00
2022-09-23T02:41:26.423Z,7.90
2022-09-23T02:44:06.273Z,7.80
2022-09-23T02:46:34.322Z,7.90
2022-09-23T02:49:23.403Z,7.80
2022-09-23T02:51:51.296Z,7.80
2022-09-23T02:54:25.709Z,7.80
2022-09-23T02:56:53.501Z,7.80
2022-09-23T02:59:22.570Z,7.90
2022-09-23T03:01:52.970Z,8.00
2022-09-23T03:04:42.631Z,7.90
2022-09-23T03:07:24.842Z,8.00
2022-09-23T03:10:21.321Z,8.10
2022-09-23T03:12:57.598Z,8.20
2022-09-23T03:15:35.357Z,8.40
2022-09-23T03:18:04.918Z,8.50
2022-09-23T03:20:37.400Z,8.70
2022-09-23T03:23:09.080Z,8.80
2022-09-23T03:25:39.670Z,8.90
2022-09-23T03:28:08.994Z,9.00
2022-09-23T03:30:36.925Z,9.10
2022-09-23T03:33:06.090Z,9.10
2022-09-23T03:35:55.541Z,9.20
2022-09-23T03:38:25.963Z,9.20
2022-09-23T03:40:54.866Z,9.20
2022-09-23T03:43:21.895Z,9.10
2022-09-23T03:45:48.788Z,9.20
2022-09-23T03:48:15.688Z,9.20
2022-09-23T03:50:42.556Z,9.10
2022-09-23T03:53:09.408Z,9.10
2022-09-23T03:55:39.419Z,9.20
2022-09-23T03:58:08.106Z,9.30
2022-09-23T04:00:36.244Z,9.40
2022-09-23T04:03:04.566Z,9.40
2022-09-23T04:05:33.971Z,9.40
2022-09-23T04:08:00.969Z,9.30
2022-09-23T04:10:27.924Z,9.30
2022-09-23T04:12:55.132Z,9.30
2022-09-23T04:15:21.961Z,9.30
2022-09-23T04:17:48.745Z,9.30
2022-09-23T04:20:16.224Z,9.20
2022-09-23T04:22:43.030Z,9.20
2022-09-23T04:25:10.527Z,9.20
2022-09-23T04:27:38.054Z,9.10
2022-09-23T04:30:06.352Z,9.10
2022-09-23T04:32:33.222Z,9.10
2022-09-23T04:35:00.076Z,9.10
2022-09-23T04:37:27.005Z,9.00
2022-09-23T04:39:54.629Z,9.00
2022-09-23T04:42:21.482Z,8.90
2022-09-23T04:44:48.728Z,8.90
2022-09-23T04:47:16.070Z,8.80
2022-09-23T04:49:42.869Z,8.80
2022-09-23T04:52:09.681Z,8.80
2022-09-23T04:54:36.897Z,8.80
2022-09-23T04:57:03.894Z,8.80
2022-09-23T04:59:30.697Z,8.70
2022-09-23T05:01:57.573Z,8.70
2022-09-23T05:04:24.699Z,8.70
2022-09-23T05:06:51.572Z,8.60
2022-09-23T05:09:18.443Z,8.60
2022-09-23T05:11:45.732Z,8.60
2022-09-23T05:14:13.157Z,8.60
2022-09-23T05:16:40.575Z,8.60
2022-09-23T05:19:07.875Z,8.60
2022-09-23T05:21:35.270Z,8.70
2022-09-23T05:24:02.523Z,8.70
2022-09-23T05:26:31.348Z,8.70
2022-09-23T05:28:59.389Z,8.70
2022-09-23T05:31:28.667Z,8.60
2022-09-23T05:33:57.995Z,8.60
2022-09-23T05:36:26.334Z,8.70
2022-09-23T05:38:53.339Z,8.80
2022-09-23T05:41:23.202Z,8.80
2022-09-23T05:43:54.297Z,8.70
2022-09-23T05:46:23.857Z,8.70
2022-09-23T05:48:51.230Z,8.50
2022-09-23T05:51:20.308Z,8.50
2022-09-23T05:53:48.081Z,8.40
2022-09-23T05:56:17.302Z,8.50
2022-09-23T05:58:44.571Z,8.40
2022-09-23T06:01:27.272Z,8.50
2022-09-23T06:03:56.277Z,8.70
2022-09-23T06:06:31.864Z,8.80
2022-09-23T06:08:59.383Z,8.90
2022-09-23T06:11:29.871Z,8.70
2022-09-23T06:14:02.338Z,8.80
2022-09-23T06:16:32.424Z,8.70
2022-09-23T06:19:05.859Z,8.70
2022-09-23T06:21:35.952Z,8.70
2022-09-23T06:24:03.221Z,8.70
2022-09-23T06:26:33.603Z,8.70
2022-09-23T06:29:02.729Z,8.90
2022-09-23T06:31:30.946Z,8.90
2022-09-23T06:34:07.759Z,9.10
2022-09-23T06:36:44.314Z,9.30
2022-09-23T06:39:12.169Z,9.50
2022-09-23T06:41:39.372Z,9.60
2022-09-23T06:44:11.894Z,9.70
2022-09-23T06:46:38.938Z,9.80
2022-09-23T06:49:05.815Z,10.00
2022-09-23T06:51:32.850Z,10.10
2022-09-23T06:53:59.706Z,10.40
2022-09-23T06:56:26.688Z,10.50
2022-09-23T06:58:53.536Z,10.70
2022-09-23T07:01:20.541Z,10.90
2022-09-23T07:03:48.534Z,11.00
2022-09-23T07:06:15.905Z,11.10
2022-09-23T07:08:44.958Z,11.20
2022-09-23T07:11:13.750Z,11.40
2022-09-23T07:13:42.015Z,11.50
2022-09-23T07:16:09.901Z,11.60
2022-09-23T07:18:37.580Z,11.70
2022-09-23T07:21:16.215Z,11.70
2022-09-23T07:23:44.477Z,11.70
2022-09-23T07:26:11.888Z,11.80
2022-09-23T07:28:39.561Z,11.80
2022-09-23T07:31:09.578Z,11.80
2022-09-23T07:33:38.365Z,11.80
2022-09-23T07:36:08.241Z,11.90
2022-09-23T07:38:36.324Z,11.90
2022-09-23T07:41:15.188Z,11.90
2022-09-23T07:43:42.256Z,12.00
2022-09-23T07:46:13.145Z,12.00
2022-09-23T07:48:40.573Z,12.10
2022-09-23T07:51:22.204Z,12.20
2022-09-23T07:53:51.247Z,12.30
2022-09-23T07:56:19.421Z,12.50
2022-09-23T07:59:00.107Z,12.60
2022-09-23T08:01:31.697Z,12.60
2022-09-23T08:04:00.606Z,12.70
2022-09-23T08:06:27.735Z,12.80
2022-09-23T08:08:57.985Z,12.80
2022-09-23T08:11:25.965Z,12.90
2022-09-23T08:13:53.887Z,12.80
2022-09-23T08:16:21.836Z,12.80
2022-09-23T08:18:48.795Z,13.00
2022-09-23T08:21:20.714Z,13.10
2022-09-23T08:23:47.722Z,13.10
2022-09-23T08:26:20.622Z,13.20
2022-09-23T08:28:49.908Z,13.30
2022-09-23T08:31:17.040Z,13.50
2022-09-23T08:33:44.451Z,13.50
2022-09-23T08:36:11.402Z,13.60
2022-09-23T08:38:38.231Z,13.70
2022-09-23T08:41:20.619Z,13.80
2022-09-23T08:43:55.839Z,14.00
2022-09-23T08:46:28.174Z,14.20
2022-09-23T08:48:55.729Z,14.30
2022-09-23T08:51:36.415Z,14.30
2022-09-23T08:54:03.371Z,14.50
2022-09-23T08:56:31.130Z,14.70
2022-09-23T08:59:15.161Z,14.70
2022-09-23T09:01:50.225Z,14.60
2022-09-23T09:04:28.061Z,14.70
2022-09-23T09:07:12.415Z,14.80
2022-09-23T09:10:09.707Z,15.10
2022-09-23T09:12:53.961Z,15.30
2022-09-23T09:15:25.360Z,15.30
2022-09-23T09:18:19.725Z,15.30
2022-09-23T09:21:14.132Z,15.30
2022-09-23T09:23:56.622Z,15.30
2022-09-23T09:26:35.342Z,15.40
2022-09-23T09:29:36.669Z,15.60
2022-09-23T09:32:33.788Z,15.80
2022-09-23T09:35:15.685Z,16.30
2022-09-23T09:37:47.877Z,16.60
2022-09-23T09:40:20.665Z,16.80
2022-09-23T09:42:50.154Z,17.20
2022-09-23T09:45:57.885Z,17.40
2022-09-23T09:48:53.683Z,17.70
2022-09-23T09:51:23.371Z,17.90
2022-09-23T09:53:53.609Z,18.10
2022-09-23T09:56:27.322Z,18.40
2022-09-23T09:59:13.823Z,18.20
2022-09-23T10:01:40.914Z,18.20
2022-09-23T10:04:31.423Z,18.30
2022-09-23T10:07:12.176Z,18.50
2022-09-23T10:09:41.201Z,18.50
2022-09-23T10:12:19.821Z,18.80
2022-09-23T10:14:51.430Z,18.80
2022-09-23T10:17:27.799Z,19.10
2022-09-23T10:20:00.315Z,19.30
2022-09-23T10:22:37.420Z,19.50
2022-09-23T10:25:20.754Z,19.70
2022-09-23T10:27:47.613Z,19.60
2022-09-23T10:30:26.241Z,19.80
2022-09-23T10:32:55.070Z,19.80
2022-09-23T10:35:24.526Z,19.80
2022-09-23T10:38:00.755Z,19.80
2022-09-23T10:40:56.020Z,19.70
2022-09-23T10:44:16.756Z,19.60
2022-09-23T10:47:04.476Z,19.20
2022-09-23T10:49:51.242Z,19.30
2022-09-23T10:52:22.231Z,19.20
2022-09-23T10:55:38.899Z,19.20
2022-09-23T10:58:20.601Z,19.20
2022-09-23T11:01:00.664Z,19.40
2022-09-23T11:04:00.211Z,19.50
2022-09-23T11:06:42.187Z,19.50
2022-09-23T11:09:40.179Z,19.50
2022-09-23T11:12:26.200Z,19.00
2022-09-23T11:14:59.325Z,18.70
2022-09-23T11:18:02.765Z,18.50
2022-09-23T11:20:44.405Z,18.60
2022-09-23T11:23:40.968Z,18.80
2022-09-23T11:26:35.014Z,19.10
2022-09-23T11:29:13.893Z,19.30
2022-09-23T11:32:19.232Z,19.30
2022-09-23T11:35:20.584Z,19.20
2022-09-23T11:38:12.160Z,18.90
2022-09-23T11:40:45.610Z,18.90
2022-09-23T11:43:23.982Z,19.00
2022-09-23T11:46:18.883Z,19.00
2022-09-23T11:48:49.319Z,19.10
2022-09-23T11:51:31.574Z,18.90
2022-09-23T11:54:04.589Z,19.00
2022-09-23T11:56:45.873Z,19.30
2022-09-23T11:59:35.825Z,19.60
2022-09-23T12:02:30.821Z,19.60
2022-09-23T12:05:04.523Z,19.70
2022-09-23T12:07:43.531Z,19.40
2022-09-23T12:10:11.875Z,19.30
2022-09-23T12:12:56.677Z,19.30
2022-09-23T12:15:57.889Z,19.20
2022-09-23T12:18:27.416Z,19.30
2022-09-23T12:21:32.710Z,19.20
2022-09-23T12:24:45.674Z,19.20
2022-09-23T12:27:23.929Z,18.90
2022-09-23T12:30:03.739Z,19.00
2022-09-23T12:32:31.569Z,19.10
2022-09-23T12:35:00.598Z,19.10
2022-09-23T12:37:38.019Z,19.10
2022-09-23T12:40:31.213Z,19.10
2022-09-23T12:43:01.182Z,19.20
2022-09-23T12:45:31.435Z,19.20
2022-09-23T12:48:22.643Z,19.70
2022-09-23T12:50:58.432Z,19.70
2022-09-23T12:53:34.639Z,19.90
2022-09-23T12:56:18.281Z,20.00
2022-09-23T12:58:48.183Z,20.30
2022-09-23T13:01:15.078Z,20.10
2022-09-23T13:04:05.211Z,20.20
2022-09-23T13:06:58.796Z,20.20
2022-09-23T13:09:30.786Z,20.40
2022-09-23T13:12:03.300Z,20.40
2022-09-23T13:14:32.766Z,20.10
2022-09-23T13:17:00.356Z,20.10
2022-09-23T13:19:27.638Z,20.00
2022-09-23T13:21:54.407Z,20.00
2022-09-23T13:24:32.778Z,20.10
2022-09-23T13:27:00.252Z,20.20
2022-09-23T13:29:35.012Z,20.10
2022-09-23T13:32:02.404Z,20.20
2022-09-23T13:34:38.608Z,20.20
2022-09-23T13:37:23.638Z,19.70
2022-09-23T13:39:51.085Z,19.70
2022-09-23T13:42:29.577Z,19.40
2022-09-23T13:45:00.446Z,19.30
2022-09-23T13:47:29.564Z,19.20
2022-09-23T13:49:57.032Z,19.20
2022-09-23T13:52:27.970Z,19.20
2022-09-23T13:54:54.790Z,19.00
2022-09-23T13:57:30.398Z,19.00
2022-09-23T14:00:02.024Z,19.00
2022-09-23T14:02:31.137Z,18.90
2022-09-23T14:04:58.997Z,18.90
2022-09-23T14:07:26.638Z,18.90
2022-09-23T14:09:55.728Z,18.70
2022-09-23T14:12:23.046Z,18.60
2022-09-23T14:14:51.829Z,18.60
2022-09-23T14:17:22.849Z,18.60
2022-09-23T14:19:50.599Z,18.50
2022-09-23T14:22:29.249Z,18.30
2022-09-23T14:24:57.299Z,18.40
2022-09-23T14:27:33.028Z,18.30
2022-09-23T14:30:02.637Z,18.20
2022-09-23T14:32:30.338Z,18.30
2022-09-23T14:35:00.364Z,18.30
2022-09-23T14:37:54.902Z,18.20
2022-09-23T14:40:50.807Z,18.20
2022-09-23T14:43:23.582Z,18.00
2022-09-23T14:45:54.807Z,17.90
2022-09-23T14:48:26.737Z,17.90
2022-09-23T14:50:59.237Z,17.70
2022-09-23T14:53:40.657Z,17.70
2022-09-23T14:56:08.737Z,17.70
2022-09-23T14:58:56.297Z,17.70
2022-09-23T15:01:27.980Z,17.70
2022-09-23T15:03:57.635Z,17.60
2022-09-23T15:06:25.016Z,17.60
2022-09-23T15:08:53.230Z,17.60
2022-09-23T15:11:22.103Z,17.60
2022-09-23T15:13:53.017Z,17.50
2022-09-23T15:16:27.999Z,17.60
2022-09-23T15:18:58.677Z,17.60
2022-09-23T15:21:42.280Z,17.60
2022-09-23T15:24:39.546Z,17.70
2022-09-23T15:27:33.811Z,17.70
2022-09-23T15:30:18.536Z,17.70
2022-09-23T15:32:46.314Z,17.70
2022-09-23T15:35:22.009Z,17.80
2022-09-23T15:37:50.166Z,17.80
2022-09-23T15:40:26.637Z,17.90
2022-09-23T15:42:56.838Z,17.80
2022-09-23T15:45:30.457Z,17.90
2022-09-23T15:48:01.945Z,17.90
2022-09-23T15:50:28.932Z,17.80
2022-09-23T15:52:55.758Z,17.90
2022-09-23T15:55:23.579Z,17.90
2022-09-23T15:57:50.801Z,17.80
2022-09-23T16:00:17.887Z,17.90
2022-09-23T16:02:46.875Z,17.80
2022-09-23T16:05:27.986Z,17.80
2022-09-23T16:07:54.828Z,17.70
2022-09-23T16:10:23.046Z,17.50
2022-09-23T16:12:52.016Z,17.40
2022-09-23T16:15:21.101Z,17.20
2022-09-23T16:17:47.884Z,17.00
2022-09-23T16:20:17.764Z,17.00
2022-09-23T16:23:07.202Z,16.80
2022-09-23T16:25:36.027Z,16.70
2022-09-23T16:28:04.638Z,16.50
2022-09-23T16:30:33.783Z,16.40
2022-09-23T16:33:01.881Z,16.30
2022-09-23T16:35:39.361Z,16.10
2022-09-23T16:38:06.791Z,16.00
2022-09-23T16:40:33.953Z,15.80
2022-09-23T16:43:04.965Z,15.80
2022-09-23T16:45:32.062Z,15.70
2022-09-23T16:47:59.473Z,15.60
2022-09-23T16:50:26.714Z,15.40
2022-09-23T16:52:56.515Z,15.30
2022-09-23T16:55:25.787Z,15.20
2022-09-23T16:57:54.032Z,15.10
2022-09-23T17:00:40.433Z,15.10
2022-09-23T17:03:25.853Z,15.00
2022-09-23T17:05:54.693Z,14.90
2022-09-23T17:08:21.541Z,14.80
2022-09-23T17:10:58.588Z,14.70
2022-09-23T17:13:27.032Z,14.60
2022-09-23T17:15:54.684Z,14.50
2022-09-23T17:18:21.618Z,14.40
2022-09-23T17:21:07.139Z,14.30
2022-09-23T17:23:35.696Z,14.20
2022-09-23T17:26:05.480Z,14.20
2022-09-23T17:28:32.318Z,14.10
2022-09-23T17:31:01.022Z,14.20
2022-09-23T17:33:30.610Z,14.20
2022-09-23T17:35:57.976Z,14.10
2022-09-23T17:38:28.845Z,14.10
2022-09-23T17:40:59.169Z,14.00
2022-09-23T17:43:26.100Z,14.00
2022-09-23T17:45:54.550Z,14.00
2022-09-23T17:48:22.678Z,13.90
2022-09-23T17:51:02.054Z,13.90
2022-09-23T17:53:35.576Z,13.90
2022-09-23T17:56:07.673Z,13.80
2022-09-23T17:58:37.255Z,13.80
2022-09-23T18:01:08.398Z,13.70
2022-09-23T18:03:35.204Z,13.70
2022-09-23T18:06:19.005Z,13.60
2022-09-23T18:08:48.032Z,13.50
2022-09-23T18:11:27.016Z,13.50
2022-09-23T18:14:01.954Z,13.50
2022-09-23T18:16:34.427Z,13.40
2022-09-23T18:19:02.818Z,13.30
2022-09-23T18:21:35.197Z,13.30
2022-09-23T18:24:21.710Z,13.20
2022-09-23T18:26:50.347Z,13.20
2022-09-23T18:29:17.390Z,13.30
2022-09-23T18:31:45.179Z,13.30
2022-09-23T18:34:14.213Z,13.30
2022-09-23T18:36:41.163Z,13.30
2022-09-23T18:39:08.198Z,13.20
2022-09-23T18:41:35.744Z,13.20
2022-09-23T18:44:03.477Z,13.20
2022-09-23T18:46:31.058Z,13.20
2022-09-23T18:49:17.745Z,13.10
2022-09-23T18:51:49.160Z,13.10
2022-09-23T18:54:16.121Z,13.00
2022-09-23T18:56:44.615Z,13.00
2022-09-23T18:59:17.668Z,13.00
2022-09-23T19:01:46.110Z,13.00
2022-09-23T19:04:15.478Z,13.00
2022-09-23T19:06:42.335Z,12.90
2022-09-23T19:09:09.370Z,12.90
2022-09-23T19:11:36.595Z,12.90
2022-09-23T19:14:06.493Z,12.90
2022-09-23T19:16:34.939Z,12.90
2022-09-23T19:19:03.425Z,12.90
2022-09-23T19:21:31.442Z,12.90
2022-09-23T19:24:03.804Z,12.80
2022-09-23T19:26:37.574Z,12.90
2022-09-23T19:29:06.145Z,12.90
2022-09-23T19:31:35.246Z,12.90
2022-09-23T19:34:10.112Z,12.90
2022-09-23T19:36:39.764Z,13.00
2022-09-23T19:39:14.654Z,13.00
2022-09-23T19:41:41.516Z,13.00
2022-09-23T19:44:08.799Z,13.00
2022-09-23T19:46:37.875Z,13.00
2022-09-23T19:49:05.974Z,13.00
2022-09-23T19:51:34.097Z,13.00
2022-09-23T19:54:02.223Z,13.00
2022-09-23T19:56:30.626Z,13.00
2022-09-23T19:58:58.348Z,12.90
2022-09-23T20:01:26.804Z,12.90
2022-09-23T20:03:53.984Z,12.90
2022-09-23T20:06:20.945Z,12.90
2022-09-23T20:08:49.184Z,12.80
2022-09-23T20:11:18.385Z,12.80
2022-09-23T20:13:50.040Z,12.80
2022-09-23T20:16:19.931Z,12.90
2022-09-23T20:18:51.320Z,12.80
2022-09-23T20:21:18.174Z,12.80
2022-09-23T20:23:45.105Z,12.90
2022-09-23T20:26:30.333Z,12.90
2022-09-23T20:28:59.418Z,12.80
2022-09-23T20:31:26.438Z,12.80
2022-09-23T20:33:58.401Z,12.80
2022-09-23T20:36:26.673Z,12.70
2022-09-23T20:39:00.980Z,12.60
2022-09-23T20:41:29.842Z,12.60
2022-09-23T20:43:59.422Z,12.60
2022-09-23T20:46:30.123Z,12.50
2022-09-23T20:48:57.053Z,12.40
2022-09-23T20:51:25.071Z,12.40
2022-09-23T20:53:53.297Z,12.30
2022-09-23T20:56:25.129Z,12.40
2022-09-23T20:58:52.789Z,12.30
2022-09-23T21:01:21.058Z,12.30
2022-09-23T21:03:50.274Z,12.40
2022-09-23T21:06:19.069Z,12.40
2022-09-23T21:08:46.408Z,12.40
2022-09-23T21:11:15.609Z,12.30
2022-09-23T21:13:50.674Z,12.30
2022-09-23T21:16:21.519Z,12.20
2022-09-23T21:18:50.452Z,12.20
2022-09-23T21:21:19.593Z,12.20
2022-09-23T21:23:47.386Z,12.20
2022-09-23T21:26:23.263Z,12.10
2022-09-23T21:28:57.813Z,12.00
2022-09-23T21:31:36.947Z,12.00
2022-09-23T21:34:11.517Z,12.10
2022-09-23T21:36:44.260Z,12.10
2022-09-23T21:39:12.036Z,12.30
2022-09-23T21:41:40.108Z,12.30
2022-09-23T21:44:08.531Z,12.30
2022-09-23T21:46:36.736Z,12.30
2022-09-23T21:49:04.367Z,12.20
2022-09-23T21:51:38.742Z,12.20
2022-09-23T21:54:07.253Z,12.20
2022-09-23T21:56:37.624Z,12.20
2022-09-23T21:59:05.725Z,12.30
2022-09-23T22:01:36.546Z,12.40
2022-09-23T22:04:13.939Z,12.40
2022-09-23T22:06:40.987Z,12.40
2022-09-23T22:09:13.402Z,12.40
2022-09-23T22:11:59.872Z,12.60
2022-09-23T22:14:27.215Z,12.80
2022-09-23T22:16:57.485Z,13.00
2022-09-23T22:19:26.783Z,13.00
2022-09-23T22:21:54.042Z,13.10
2022-09-23T22:24:20.870Z,13.10
2022-09-23T22:26:47.931Z,13.10
2022-09-23T22:29:34.672Z,13.00
2022-09-23T22:32:21.927Z,12.90
2022-09-23T22:34:50.949Z,12.80
2022-09-23T22:37:25.619Z,12.80
2022-09-23T22:39:52.890Z,12.90
2022-09-23T22:42:22.629Z,13.00
2022-09-23T22:44:50.673Z,13.00
2022-09-23T22:47:18.557Z,13.10
2022-09-23T22:49:46.471Z,13.20
2022-09-23T22:52:16.065Z,13.10
2022-09-23T22:54:43.115Z,13.10
2022-09-23T22:57:10.490Z,13.10
2022-09-23T22:59:38.023Z,13.10
2022-09-23T23:02:08.339Z,13.10
2022-09-23T23:04:36.634Z,13.00
2022-09-23T23:07:04.650Z,13.00
2022-09-23T23:09:31.449Z,13.00
2022-09-23T23:11:58.277Z,13.10
2022-09-23T23:14:26.403Z,13.00
2022-09-23T23:16:53.585Z,13.00
2022-09-23T23:19:20.521Z,13.00
2022-09-23T23:21:49.010Z,13.00
2022-09-23T23:24:17.866Z,12.90
2022-09-23T23:26:45.221Z,12.90
2022-09-23T23:29:13.463Z,12.80
2022-09-23T23:31:40.828Z,12.70
2022-09-23T23:34:11.892Z,12.60
2022-09-23T23:36:39.958Z,12.60
2022-09-23T23:39:07.193Z,12.50
2022-09-23T23:41:35.076Z,12.40
2022-09-23T23:44:02.730Z,12.40
2022-09-23T23:46:31.394Z,12.30
2022-09-23T23:48:59.436Z,12.30
2022-09-23T23:51:27.340Z,12.20
2022-09-23T23:53:54.916Z,12.20
2022-09-23T23:56:25.978Z,12.20
2022-09-23T23:58:57.474Z,12.20
